sensor_id;sensor_type;location;lat;lon;timestamp;temperature;humidity
22202;DHT22;11266;51.522;6.302;2023-07-09T00:00:28;24.80;95.50
22202;DHT22;11266;51.522;6.302;2023-07-09T00:01:18;24.80;95.50
22202;DHT22;11266;51.522;6.302;2023-07-09T00:02:04;24.70;95.50
22202;DHT22;11266;51.522;6.302;2023-07-09T00:02:49;24.70;95.60
22202;DHT22;11266;51.522;6.302;2023-07-09T00:03:35;24.70;95.70
22202;DHT22;11266;51.522;6.302;2023-07-09T00:04:21;24.70;96.00
22202;DHT22;11266;51.522;6.302;2023-07-09T00:05:14;24.70;96.10
22202;DHT22;11266;51.522;6.302;2023-07-09T00:06:00;24.70;95.70
22202;DHT22;11266;51.522;6.302;2023-07-09T00:06:46;24.70;95.90
22202;DHT22;11266;51.522;6.302;2023-07-09T00:07:32;24.60;95.80
22202;DHT22;11266;51.522;6.302;2023-07-09T00:08:26;24.70;95.60
22202;DHT22;11266;51.522;6.302;2023-07-09T00:09:18;24.60;95.90
22202;DHT22;11266;51.522;6.302;2023-07-09T00:10:16;24.70;96.20
22202;DHT22;11266;51.522;6.302;2023-07-09T00:11:02;24.60;95.80
22202;DHT22;11266;51.522;6.302;2023-07-09T00:11:49;24.60;95.90
22202;DHT22;11266;51.522;6.302;2023-07-09T00:12:35;24.60;96.00
22202;DHT22;11266;51.522;6.302;2023-07-09T00:13:22;24.60;95.80
22202;DHT22;11266;51.522;6.302;2023-07-09T00:14:09;24.60;96.00
22202;DHT22;11266;51.522;6.302;2023-07-09T00:14:54;24.50;95.80
22202;DHT22;11266;51.522;6.302;2023-07-09T00:15:42;24.60;95.80
22202;DHT22;11266;51.522;6.302;2023-07-09T00:16:28;24.50;96.00
22202;DHT22;11266;51.522;6.302;2023-07-09T00:17:26;24.50;95.80
22202;DHT22;11266;51.522;6.302;2023-07-09T00:18:12;24.50;96.00
22202;DHT22;11266;51.522;6.302;2023-07-09T00:18:57;24.50;96.10
22202;DHT22;11266;51.522;6.302;2023-07-09T00:19:43;24.40;96.50
22202;DHT22;11266;51.522;6.302;2023-07-09T00:20:29;24.40;96.10
22202;DHT22;11266;51.522;6.302;2023-07-09T00:21:17;24.40;96.70
22202;DHT22;11266;51.522;6.302;2023-07-09T00:22:03;24.40;97.10
22202;DHT22;11266;51.522;6.302;2023-07-09T00:22:52;24.40;97.00
22202;DHT22;11266;51.522;6.302;2023-07-09T00:23:38;24.30;96.20
22202;DHT22;11266;51.522;6.302;2023-07-09T00:24:25;24.40;96.40
22202;DHT22;11266;51.522;6.302;2023-07-09T00:25:12;24.40;96.30
22202;DHT22;11266;51.522;6.302;2023-07-09T00:26:02;24.30;96.50
22202;DHT22;11266;51.522;6.302;2023-07-09T00:26:48;24.30;96.30
22202;DHT22;11266;51.522;6.302;2023-07-09T00:27:34;24.30;96.10
22202;DHT22;11266;51.522;6.302;2023-07-09T00:28:20;24.40;96.10
22202;DHT22;11266;51.522;6.302;2023-07-09T00:29:11;24.40;96.50
22202;DHT22;11266;51.522;6.302;2023-07-09T00:29:57;24.30;96.40
22202;DHT22;11266;51.522;6.302;2023-07-09T00:30:45;24.30;96.10
22202;DHT22;11266;51.522;6.302;2023-07-09T00:31:30;24.30;96.20
22202;DHT22;11266;51.522;6.302;2023-07-09T00:32:19;24.30;96.80
22202;DHT22;11266;51.522;6.302;2023-07-09T00:33:10;24.30;96.80
22202;DHT22;11266;51.522;6.302;2023-07-09T00:33:56;24.30;97.10
22202;DHT22;11266;51.522;6.302;2023-07-09T00:34:43;24.20;96.30
22202;DHT22;11266;51.522;6.302;2023-07-09T00:35:33;24.20;96.40
22202;DHT22;11266;51.522;6.302;2023-07-09T00:36:26;24.20;96.30
22202;DHT22;11266;51.522;6.302;2023-07-09T00:37:12;24.20;96.20
22202;DHT22;11266;51.522;6.302;2023-07-09T00:37:58;24.30;96.30
22202;DHT22;11266;51.522;6.302;2023-07-09T00:38:46;24.20;96.30
22202;DHT22;11266;51.522;6.302;2023-07-09T00:39:33;24.20;96.60
22202;DHT22;11266;51.522;6.302;2023-07-09T00:40:21;24.20;96.30
22202;DHT22;11266;51.522;6.302;2023-07-09T00:41:15;24.20;96.30
22202;DHT22;11266;51.522;6.302;2023-07-09T00:42:04;24.20;96.40
22202;DHT22;11266;51.522;6.302;2023-07-09T00:42:53;24.10;96.30
22202;DHT22;11266;51.522;6.302;2023-07-09T00:43:39;24.20;96.40
22202;DHT22;11266;51.522;6.302;2023-07-09T00:44:30;24.20;96.40
22202;DHT22;11266;51.522;6.302;2023-07-09T00:45:25;24.10;96.40
22202;DHT22;11266;51.522;6.302;2023-07-09T00:47:11;24.10;96.40
22202;DHT22;11266;51.522;6.302;2023-07-09T00:47:53;24.10;96.70
22202;DHT22;11266;51.522;6.302;2023-07-09T00:48:39;24.10;96.50
22202;DHT22;11266;51.522;6.302;2023-07-09T00:51:14;24.00;96.60
22202;DHT22;11266;51.522;6.302;2023-07-09T00:52:13;24.10;96.60
22202;DHT22;11266;51.522;6.302;2023-07-09T00:53:10;24.00;96.60
22202;DHT22;11266;51.522;6.302;2023-07-09T00:54:06;24.00;96.70
22202;DHT22;11266;51.522;6.302;2023-07-09T00:54:54;24.00;96.70
22202;DHT22;11266;51.522;6.302;2023-07-09T00:55:42;24.00;96.70
22202;DHT22;11266;51.522;6.302;2023-07-09T00:56:33;24.00;96.80
22202;DHT22;11266;51.522;6.302;2023-07-09T00:57:25;24.00;96.80
22202;DHT22;11266;51.522;6.302;2023-07-09T00:58:13;23.90;96.80
22202;DHT22;11266;51.522;6.302;2023-07-09T00:59:02;23.90;96.90
22202;DHT22;11266;51.522;6.302;2023-07-09T00:59:53;23.90;96.90
22202;DHT22;11266;51.522;6.302;2023-07-09T01:00:45;23.90;96.90
22202;DHT22;11266;51.522;6.302;2023-07-09T01:01:33;23.90;96.90
22202;DHT22;11266;51.522;6.302;2023-07-09T01:02:20;23.90;97.10
22202;DHT22;11266;51.522;6.302;2023-07-09T01:03:11;23.90;97.00
22202;DHT22;11266;51.522;6.302;2023-07-09T01:03:59;23.80;97.10
22202;DHT22;11266;51.522;6.302;2023-07-09T01:04:46;23.80;97.10
22202;DHT22;11266;51.522;6.302;2023-07-09T01:05:34;23.80;97.10
22202;DHT22;11266;51.522;6.302;2023-07-09T01:06:32;23.80;97.10
22202;DHT22;11266;51.522;6.302;2023-07-09T01:07:20;23.80;97.00
22202;DHT22;11266;51.522;6.302;2023-07-09T01:08:07;23.70;97.20
22202;DHT22;11266;51.522;6.302;2023-07-09T01:08:54;23.70;97.50
22202;DHT22;11266;51.522;6.302;2023-07-09T01:09:41;23.80;97.20
22202;DHT22;11266;51.522;6.302;2023-07-09T01:10:26;23.70;97.20
22202;DHT22;11266;51.522;6.302;2023-07-09T01:11:17;23.70;97.60
22202;DHT22;11266;51.522;6.302;2023-07-09T01:12:08;23.70;97.40
22202;DHT22;11266;51.522;6.302;2023-07-09T01:12:54;23.70;97.30
22202;DHT22;11266;51.522;6.302;2023-07-09T01:13:40;23.70;97.40
22202;DHT22;11266;51.522;6.302;2023-07-09T01:14:25;23.70;97.40
22202;DHT22;11266;51.522;6.302;2023-07-09T01:15:12;23.70;97.40
22202;DHT22;11266;51.522;6.302;2023-07-09T01:15:58;23.70;97.40
22202;DHT22;11266;51.522;6.302;2023-07-09T01:16:55;23.60;97.40
22202;DHT22;11266;51.522;6.302;2023-07-09T01:17:45;23.60;97.40
22202;DHT22;11266;51.522;6.302;2023-07-09T01:18:30;23.60;97.50
22202;DHT22;11266;51.522;6.302;2023-07-09T01:19:21;23.60;97.50
22202;DHT22;11266;51.522;6.302;2023-07-09T01:20:09;23.60;97.50
22202;DHT22;11266;51.522;6.302;2023-07-09T01:21:08;23.60;97.50
22202;DHT22;11266;51.522;6.302;2023-07-09T01:22:00;23.60;97.60
22202;DHT22;11266;51.522;6.302;2023-07-09T01:22:48;23.50;97.60
22202;DHT22;11266;51.522;6.302;2023-07-09T01:23:34;23.50;97.60
22202;DHT22;11266;51.522;6.302;2023-07-09T01:25:33;23.50;97.60
22202;DHT22;11266;51.522;6.302;2023-07-09T01:26:21;23.50;97.70
22202;DHT22;11266;51.522;6.302;2023-07-09T01:27:10;23.50;97.80
22202;DHT22;11266;51.522;6.302;2023-07-09T01:27:56;23.50;97.80
22202;DHT22;11266;51.522;6.302;2023-07-09T01:28:42;23.50;97.70
22202;DHT22;11266;51.522;6.302;2023-07-09T01:29:35;23.40;97.70
22202;DHT22;11266;51.522;6.302;2023-07-09T01:30:29;23.50;97.80
22202;DHT22;11266;51.522;6.302;2023-07-09T01:31:15;23.40;97.80
22202;DHT22;11266;51.522;6.302;2023-07-09T01:32:01;23.40;97.80
22202;DHT22;11266;51.522;6.302;2023-07-09T01:32:50;23.40;97.80
22202;DHT22;11266;51.522;6.302;2023-07-09T01:33:36;23.40;97.90
22202;DHT22;11266;51.522;6.302;2023-07-09T01:34:24;23.40;97.90
22202;DHT22;11266;51.522;6.302;2023-07-09T01:35:10;23.40;97.90
22202;DHT22;11266;51.522;6.302;2023-07-09T01:35:56;23.40;97.90
22202;DHT22;11266;51.522;6.302;2023-07-09T01:36:45;23.30;98.00
22202;DHT22;11266;51.522;6.302;2023-07-09T01:37:33;23.30;98.00
22202;DHT22;11266;51.522;6.302;2023-07-09T01:38:19;23.30;98.20
22202;DHT22;11266;51.522;6.302;2023-07-09T01:39:05;23.30;98.10
22202;DHT22;11266;51.522;6.302;2023-07-09T01:39:52;23.30;98.00
22202;DHT22;11266;51.522;6.302;2023-07-09T01:40:37;23.30;98.10
22202;DHT22;11266;51.522;6.302;2023-07-09T01:41:23;23.30;98.10
22202;DHT22;11266;51.522;6.302;2023-07-09T01:42:09;23.30;98.20
22202;DHT22;11266;51.522;6.302;2023-07-09T01:42:56;23.30;98.30
22202;DHT22;11266;51.522;6.302;2023-07-09T01:43:43;23.30;98.20
22202;DHT22;11266;51.522;6.302;2023-07-09T01:44:29;23.20;98.20
22202;DHT22;11266;51.522;6.302;2023-07-09T01:45:15;23.20;98.20
22202;DHT22;11266;51.522;6.302;2023-07-09T01:46:01;23.20;98.50
22202;DHT22;11266;51.522;6.302;2023-07-09T01:46:47;23.20;98.30
22202;DHT22;11266;51.522;6.302;2023-07-09T01:47:33;23.10;98.30
22202;DHT22;11266;51.522;6.302;2023-07-09T01:48:19;23.10;98.30
22202;DHT22;11266;51.522;6.302;2023-07-09T01:49:05;23.10;98.30
22202;DHT22;11266;51.522;6.302;2023-07-09T01:49:52;23.10;98.30
22202;DHT22;11266;51.522;6.302;2023-07-09T01:50:43;23.10;98.40
22202;DHT22;11266;51.522;6.302;2023-07-09T01:51:29;23.10;98.40
22202;DHT22;11266;51.522;6.302;2023-07-09T01:52:15;23.10;98.40
22202;DHT22;11266;51.522;6.302;2023-07-09T01:53:02;23.10;98.40
22202;DHT22;11266;51.522;6.302;2023-07-09T01:53:47;23.10;98.40
22202;DHT22;11266;51.522;6.302;2023-07-09T01:54:33;23.10;98.50
22202;DHT22;11266;51.522;6.302;2023-07-09T01:55:23;23.10;98.50
22202;DHT22;11266;51.522;6.302;2023-07-09T01:56:08;23.10;98.40
22202;DHT22;11266;51.522;6.302;2023-07-09T01:56:54;23.00;98.40
22202;DHT22;11266;51.522;6.302;2023-07-09T01:57:46;23.00;98.50
22202;DHT22;11266;51.522;6.302;2023-07-09T01:58:32;23.00;98.50
22202;DHT22;11266;51.522;6.302;2023-07-09T01:59:18;23.00;98.60
22202;DHT22;11266;51.522;6.302;2023-07-09T02:00:10;23.00;98.60
22202;DHT22;11266;51.522;6.302;2023-07-09T02:00:56;23.00;98.70
22202;DHT22;11266;51.522;6.302;2023-07-09T02:01:42;23.00;98.60
22202;DHT22;11266;51.522;6.302;2023-07-09T02:02:27;23.00;98.70
22202;DHT22;11266;51.522;6.302;2023-07-09T02:03:13;23.00;98.90
22202;DHT22;11266;51.522;6.302;2023-07-09T02:03:59;22.90;98.60
22202;DHT22;11266;51.522;6.302;2023-07-09T02:04:53;22.90;98.70
22202;DHT22;11266;51.522;6.302;2023-07-09T02:05:40;23.00;98.70
22202;DHT22;11266;51.522;6.302;2023-07-09T02:06:26;22.90;98.80
22202;DHT22;11266;51.522;6.302;2023-07-09T02:07:18;22.90;98.80
22202;DHT22;11266;51.522;6.302;2023-07-09T02:08:04;22.90;98.80
22202;DHT22;11266;51.522;6.302;2023-07-09T02:08:50;22.90;99.00
22202;DHT22;11266;51.522;6.302;2023-07-09T02:09:35;22.90;98.80
22202;DHT22;11266;51.522;6.302;2023-07-09T02:10:21;22.90;98.80
22202;DHT22;11266;51.522;6.302;2023-07-09T02:11:06;22.80;98.80
22202;DHT22;11266;51.522;6.302;2023-07-09T02:11:52;22.80;98.90
22202;DHT22;11266;51.522;6.302;2023-07-09T02:12:38;22.90;98.90
22202;DHT22;11266;51.522;6.302;2023-07-09T02:13:23;22.80;98.90
22202;DHT22;11266;51.522;6.302;2023-07-09T02:14:09;22.90;99.00
22202;DHT22;11266;51.522;6.302;2023-07-09T02:14:54;22.80;99.00
22202;DHT22;11266;51.522;6.302;2023-07-09T02:15:40;22.80;98.90
22202;DHT22;11266;51.522;6.302;2023-07-09T02:16:28;22.80;99.10
22202;DHT22;11266;51.522;6.302;2023-07-09T02:17:15;22.80;99.20
22202;DHT22;11266;51.522;6.302;2023-07-09T02:18:00;22.70;99.00
22202;DHT22;11266;51.522;6.302;2023-07-09T02:18:47;22.80;99.10
22202;DHT22;11266;51.522;6.302;2023-07-09T02:19:32;22.70;99.20
22202;DHT22;11266;51.522;6.302;2023-07-09T02:20:18;22.70;99.20
22202;DHT22;11266;51.522;6.302;2023-07-09T02:21:04;22.70;99.10
22202;DHT22;11266;51.522;6.302;2023-07-09T02:21:50;22.70;99.20
22202;DHT22;11266;51.522;6.302;2023-07-09T02:22:37;22.70;99.20
22202;DHT22;11266;51.522;6.302;2023-07-09T02:23:27;22.70;99.20
22202;DHT22;11266;51.522;6.302;2023-07-09T02:24:13;22.70;99.20
22202;DHT22;11266;51.522;6.302;2023-07-09T02:24:58;22.70;99.20
22202;DHT22;11266;51.522;6.302;2023-07-09T02:25:44;22.70;99.30
22202;DHT22;11266;51.522;6.302;2023-07-09T02:26:29;22.70;99.20
22202;DHT22;11266;51.522;6.302;2023-07-09T02:27:16;22.60;99.20
22202;DHT22;11266;51.522;6.302;2023-07-09T02:28:02;22.60;99.20
22202;DHT22;11266;51.522;6.302;2023-07-09T02:28:48;22.60;99.30
22202;DHT22;11266;51.522;6.302;2023-07-09T02:29:33;22.60;99.40
22202;DHT22;11266;51.522;6.302;2023-07-09T02:30:19;22.60;99.40
22202;DHT22;11266;51.522;6.302;2023-07-09T02:31:05;22.60;99.40
22202;DHT22;11266;51.522;6.302;2023-07-09T02:31:52;22.60;99.50
22202;DHT22;11266;51.522;6.302;2023-07-09T02:32:38;22.60;99.40
22202;DHT22;11266;51.522;6.302;2023-07-09T02:33:23;22.50;99.50
22202;DHT22;11266;51.522;6.302;2023-07-09T02:34:09;22.50;99.50
22202;DHT22;11266;51.522;6.302;2023-07-09T02:34:55;22.50;99.60
22202;DHT22;11266;51.522;6.302;2023-07-09T02:35:40;22.50;99.50
22202;DHT22;11266;51.522;6.302;2023-07-09T02:36:26;22.50;99.60
22202;DHT22;11266;51.522;6.302;2023-07-09T02:37:11;22.50;99.70
22202;DHT22;11266;51.522;6.302;2023-07-09T02:37:57;22.50;99.70
22202;DHT22;11266;51.522;6.302;2023-07-09T02:38:42;22.50;99.80
22202;DHT22;11266;51.522;6.302;2023-07-09T02:39:28;22.50;99.70
22202;DHT22;11266;51.522;6.302;2023-07-09T02:40:15;22.40;99.60
22202;DHT22;11266;51.522;6.302;2023-07-09T02:41:01;22.40;99.80
22202;DHT22;11266;51.522;6.302;2023-07-09T02:41:47;22.40;99.70
22202;DHT22;11266;51.522;6.302;2023-07-09T02:42:33;22.40;99.80
22202;DHT22;11266;51.522;6.302;2023-07-09T02:43:18;22.40;99.80
22202;DHT22;11266;51.522;6.302;2023-07-09T02:44:04;22.40;99.80
22202;DHT22;11266;51.522;6.302;2023-07-09T02:44:50;22.40;99.90
22202;DHT22;11266;51.522;6.302;2023-07-09T02:45:35;22.40;99.90
22202;DHT22;11266;51.522;6.302;2023-07-09T02:46:21;22.40;99.90
22202;DHT22;11266;51.522;6.302;2023-07-09T02:47:07;22.30;99.90
22202;DHT22;11266;51.522;6.302;2023-07-09T02:47:53;22.30;99.90
22202;DHT22;11266;51.522;6.302;2023-07-09T02:48:38;22.30;99.90
22202;DHT22;11266;51.522;6.302;2023-07-09T02:49:24;22.30;99.90
22202;DHT22;11266;51.522;6.302;2023-07-09T02:50:10;22.30;99.90
22202;DHT22;11266;51.522;6.302;2023-07-09T02:50:55;22.30;99.90
22202;DHT22;11266;51.522;6.302;2023-07-09T02:51:41;22.30;99.90
22202;DHT22;11266;51.522;6.302;2023-07-09T02:52:26;22.30;99.90
22202;DHT22;11266;51.522;6.302;2023-07-09T02:53:12;22.20;99.90
22202;DHT22;11266;51.522;6.302;2023-07-09T02:53:59;22.30;99.90
22202;DHT22;11266;51.522;6.302;2023-07-09T02:54:45;22.30;99.90
22202;DHT22;11266;51.522;6.302;2023-07-09T02:55:40;22.30;99.90
22202;DHT22;11266;51.522;6.302;2023-07-09T02:56:27;22.20;99.90
22202;DHT22;11266;51.522;6.302;2023-07-09T02:57:13;22.20;99.90
22202;DHT22;11266;51.522;6.302;2023-07-09T02:57:58;22.20;99.90
22202;DHT22;11266;51.522;6.302;2023-07-09T02:58:44;22.20;99.90
22202;DHT22;11266;51.522;6.302;2023-07-09T02:59:30;22.20;99.90
22202;DHT22;11266;51.522;6.302;2023-07-09T03:00:18;22.20;99.90
22202;DHT22;11266;51.522;6.302;2023-07-09T03:01:03;22.10;99.90
22202;DHT22;11266;51.522;6.302;2023-07-09T03:01:50;22.20;99.90
22202;DHT22;11266;51.522;6.302;2023-07-09T03:02:36;22.20;99.90
22202;DHT22;11266;51.522;6.302;2023-07-09T03:03:22;22.20;99.90
22202;DHT22;11266;51.522;6.302;2023-07-09T03:04:09;22.10;99.90
22202;DHT22;11266;51.522;6.302;2023-07-09T03:04:55;22.10;99.90
22202;DHT22;11266;51.522;6.302;2023-07-09T03:05:41;22.10;99.90
22202;DHT22;11266;51.522;6.302;2023-07-09T03:06:27;22.10;99.90
22202;DHT22;11266;51.522;6.302;2023-07-09T03:07:13;22.10;99.90
22202;DHT22;11266;51.522;6.302;2023-07-09T03:07:59;22.10;99.90
22202;DHT22;11266;51.522;6.302;2023-07-09T03:08:44;22.10;99.90
22202;DHT22;11266;51.522;6.302;2023-07-09T03:09:30;22.10;99.90
22202;DHT22;11266;51.522;6.302;2023-07-09T03:10:16;22.10;99.90
22202;DHT22;11266;51.522;6.302;2023-07-09T03:11:12;22.00;99.90
22202;DHT22;11266;51.522;6.302;2023-07-09T03:11:58;22.00;99.90
22202;DHT22;11266;51.522;6.302;2023-07-09T03:12:43;22.00;99.90
22202;DHT22;11266;51.522;6.302;2023-07-09T03:13:29;22.00;99.90
22202;DHT22;11266;51.522;6.302;2023-07-09T03:14:15;22.00;99.90
22202;DHT22;11266;51.522;6.302;2023-07-09T03:15:01;22.00;99.90
22202;DHT22;11266;51.522;6.302;2023-07-09T03:15:57;22.00;99.90
22202;DHT22;11266;51.522;6.302;2023-07-09T03:16:43;22.00;99.90
22202;DHT22;11266;51.522;6.302;2023-07-09T03:17:28;22.00;99.90
22202;DHT22;11266;51.522;6.302;2023-07-09T03:18:14;21.90;99.90
22202;DHT22;11266;51.522;6.302;2023-07-09T03:19:00;21.90;99.90
22202;DHT22;11266;51.522;6.302;2023-07-09T03:19:46;21.90;99.90
22202;DHT22;11266;51.522;6.302;2023-07-09T03:20:32;21.90;99.90
22202;DHT22;11266;51.522;6.302;2023-07-09T03:21:17;21.90;99.90
22202;DHT22;11266;51.522;6.302;2023-07-09T03:22:03;21.90;99.90
22202;DHT22;11266;51.522;6.302;2023-07-09T03:22:49;21.90;99.90
22202;DHT22;11266;51.522;6.302;2023-07-09T03:23:34;21.90;99.90
22202;DHT22;11266;51.522;6.302;2023-07-09T03:24:20;21.80;99.90
22202;DHT22;11266;51.522;6.302;2023-07-09T03:25:06;21.90;99.90
22202;DHT22;11266;51.522;6.302;2023-07-09T03:25:51;21.80;99.90
22202;DHT22;11266;51.522;6.302;2023-07-09T03:26:37;21.90;99.90
22202;DHT22;11266;51.522;6.302;2023-07-09T03:27:23;21.80;99.90
22202;DHT22;11266;51.522;6.302;2023-07-09T03:28:08;21.90;99.90
22202;DHT22;11266;51.522;6.302;2023-07-09T03:28:54;21.80;99.90
22202;DHT22;11266;51.522;6.302;2023-07-09T03:29:40;21.80;99.90
22202;DHT22;11266;51.522;6.302;2023-07-09T03:30:25;21.80;99.90
22202;DHT22;11266;51.522;6.302;2023-07-09T03:31:11;21.80;99.90
22202;DHT22;11266;51.522;6.302;2023-07-09T03:31:57;21.80;99.90
22202;DHT22;11266;51.522;6.302;2023-07-09T03:32:43;21.80;99.90
22202;DHT22;11266;51.522;6.302;2023-07-09T03:33:29;21.80;99.90
22202;DHT22;11266;51.522;6.302;2023-07-09T03:34:15;21.80;99.90
22202;DHT22;11266;51.522;6.302;2023-07-09T03:35:00;21.80;99.90
22202;DHT22;11266;51.522;6.302;2023-07-09T03:35:46;21.80;99.90
22202;DHT22;11266;51.522;6.302;2023-07-09T03:36:32;21.80;99.90
22202;DHT22;11266;51.522;6.302;2023-07-09T03:37:18;21.80;99.90
22202;DHT22;11266;51.522;6.302;2023-07-09T03:38:04;21.80;99.90
22202;DHT22;11266;51.522;6.302;2023-07-09T03:38:50;21.80;99.90
22202;DHT22;11266;51.522;6.302;2023-07-09T03:39:35;21.80;99.90
22202;DHT22;11266;51.522;6.302;2023-07-09T03:40:22;21.80;99.90
22202;DHT22;11266;51.522;6.302;2023-07-09T03:41:08;21.70;99.90
22202;DHT22;11266;51.522;6.302;2023-07-09T03:41:53;21.80;99.90
22202;DHT22;11266;51.522;6.302;2023-07-09T03:42:39;21.80;99.90
22202;DHT22;11266;51.522;6.302;2023-07-09T03:43:27;21.70;99.90
22202;DHT22;11266;51.522;6.302;2023-07-09T03:44:13;21.70;99.90
22202;DHT22;11266;51.522;6.302;2023-07-09T03:44:58;21.70;99.90
22202;DHT22;11266;51.522;6.302;2023-07-09T03:45:45;21.70;99.90
22202;DHT22;11266;51.522;6.302;2023-07-09T03:46:31;21.70;99.90
22202;DHT22;11266;51.522;6.302;2023-07-09T03:47:17;21.70;99.90
22202;DHT22;11266;51.522;6.302;2023-07-09T03:48:05;21.70;99.90
22202;DHT22;11266;51.522;6.302;2023-07-09T03:48:50;21.70;99.90
22202;DHT22;11266;51.522;6.302;2023-07-09T03:49:36;21.70;99.90
22202;DHT22;11266;51.522;6.302;2023-07-09T03:50:22;21.70;99.90
22202;DHT22;11266;51.522;6.302;2023-07-09T03:51:08;21.70;99.90
22202;DHT22;11266;51.522;6.302;2023-07-09T03:51:54;21.70;99.90
22202;DHT22;11266;51.522;6.302;2023-07-09T03:52:39;21.70;99.90
22202;DHT22;11266;51.522;6.302;2023-07-09T03:53:25;21.70;99.90
22202;DHT22;11266;51.522;6.302;2023-07-09T03:54:10;21.70;99.90
22202;DHT22;11266;51.522;6.302;2023-07-09T03:54:56;21.70;99.90
22202;DHT22;11266;51.522;6.302;2023-07-09T03:55:42;21.70;99.90
22202;DHT22;11266;51.522;6.302;2023-07-09T03:56:28;21.70;99.90
22202;DHT22;11266;51.522;6.302;2023-07-09T03:57:14;21.70;99.90
22202;DHT22;11266;51.522;6.302;2023-07-09T03:57:59;21.70;99.90
22202;DHT22;11266;51.522;6.302;2023-07-09T03:58:45;21.70;99.90
22202;DHT22;11266;51.522;6.302;2023-07-09T03:59:31;21.70;99.90
22202;DHT22;11266;51.522;6.302;2023-07-09T04:00:17;21.70;99.90
22202;DHT22;11266;51.522;6.302;2023-07-09T04:01:03;21.70;99.90
22202;DHT22;11266;51.522;6.302;2023-07-09T04:01:48;21.70;99.90
22202;DHT22;11266;51.522;6.302;2023-07-09T04:02:34;21.70;99.90
22202;DHT22;11266;51.522;6.302;2023-07-09T04:03:20;21.70;99.90
22202;DHT22;11266;51.522;6.302;2023-07-09T04:04:05;21.70;99.90
22202;DHT22;11266;51.522;6.302;2023-07-09T04:04:51;21.70;99.90
22202;DHT22;11266;51.522;6.302;2023-07-09T04:05:37;21.70;99.90
22202;DHT22;11266;51.522;6.302;2023-07-09T04:06:23;21.70;99.90
22202;DHT22;11266;51.522;6.302;2023-07-09T04:07:08;21.70;99.90
22202;DHT22;11266;51.522;6.302;2023-07-09T04:07:54;21.70;99.90
22202;DHT22;11266;51.522;6.302;2023-07-09T04:08:40;21.70;99.90
22202;DHT22;11266;51.522;6.302;2023-07-09T04:09:26;21.70;99.90
22202;DHT22;11266;51.522;6.302;2023-07-09T04:10:11;21.70;99.90
22202;DHT22;11266;51.522;6.302;2023-07-09T04:11:01;21.80;99.90
22202;DHT22;11266;51.522;6.302;2023-07-09T04:11:49;21.80;99.90
22202;DHT22;11266;51.522;6.302;2023-07-09T04:12:34;21.70;99.90
22202;DHT22;11266;51.522;6.302;2023-07-09T04:13:22;21.80;99.90
22202;DHT22;11266;51.522;6.302;2023-07-09T04:14:09;21.80;99.90
22202;DHT22;11266;51.522;6.302;2023-07-09T04:14:55;21.80;99.90
22202;DHT22;11266;51.522;6.302;2023-07-09T04:15:41;21.80;99.90
22202;DHT22;11266;51.522;6.302;2023-07-09T04:16:29;21.80;99.90
22202;DHT22;11266;51.522;6.302;2023-07-09T04:17:15;21.80;99.90
22202;DHT22;11266;51.522;6.302;2023-07-09T04:18:00;21.80;99.90
22202;DHT22;11266;51.522;6.302;2023-07-09T04:18:46;21.90;99.90
22202;DHT22;11266;51.522;6.302;2023-07-09T04:19:32;21.90;99.90
22202;DHT22;11266;51.522;6.302;2023-07-09T04:20:17;21.90;99.90
22202;DHT22;11266;51.522;6.302;2023-07-09T04:21:04;21.90;99.90
22202;DHT22;11266;51.522;6.302;2023-07-09T04:21:49;21.90;99.90
22202;DHT22;11266;51.522;6.302;2023-07-09T04:22:36;22.00;99.90
22202;DHT22;11266;51.522;6.302;2023-07-09T04:23:22;22.00;99.90
22202;DHT22;11266;51.522;6.302;2023-07-09T04:24:07;22.00;99.90
22202;DHT22;11266;51.522;6.302;2023-07-09T04:24:53;22.00;99.90
22202;DHT22;11266;51.522;6.302;2023-07-09T04:25:38;22.00;99.90
22202;DHT22;11266;51.522;6.302;2023-07-09T04:26:24;22.10;99.90
22202;DHT22;11266;51.522;6.302;2023-07-09T04:27:10;22.10;99.90
22202;DHT22;11266;51.522;6.302;2023-07-09T04:28:00;22.10;99.90
22202;DHT22;11266;51.522;6.302;2023-07-09T04:28:45;22.20;99.90
22202;DHT22;11266;51.522;6.302;2023-07-09T04:29:32;22.20;99.90
22202;DHT22;11266;51.522;6.302;2023-07-09T04:30:21;22.20;99.90
22202;DHT22;11266;51.522;6.302;2023-07-09T04:31:06;22.30;99.90
22202;DHT22;11266;51.522;6.302;2023-07-09T04:32:02;22.20;99.90
22202;DHT22;11266;51.522;6.302;2023-07-09T04:32:47;22.30;99.90
22202;DHT22;11266;51.522;6.302;2023-07-09T04:33:33;22.30;99.90
22202;DHT22;11266;51.522;6.302;2023-07-09T04:34:21;22.40;99.90
22202;DHT22;11266;51.522;6.302;2023-07-09T04:35:07;22.40;99.90
22202;DHT22;11266;51.522;6.302;2023-07-09T04:35:53;22.40;99.90
22202;DHT22;11266;51.522;6.302;2023-07-09T04:36:38;22.40;99.90
22202;DHT22;11266;51.522;6.302;2023-07-09T04:37:24;22.50;99.90
22202;DHT22;11266;51.522;6.302;2023-07-09T04:38:09;22.50;99.90
22202;DHT22;11266;51.522;6.302;2023-07-09T04:38:55;22.50;99.90
22202;DHT22;11266;51.522;6.302;2023-07-09T04:39:41;22.60;99.90
22202;DHT22;11266;51.522;6.302;2023-07-09T04:40:26;22.60;99.90
22202;DHT22;11266;51.522;6.302;2023-07-09T04:41:12;22.60;99.90
22202;DHT22;11266;51.522;6.302;2023-07-09T04:41:57;22.60;99.90
22202;DHT22;11266;51.522;6.302;2023-07-09T04:42:43;22.70;99.90
22202;DHT22;11266;51.522;6.302;2023-07-09T04:43:29;22.70;99.90
22202;DHT22;11266;51.522;6.302;2023-07-09T04:44:17;22.80;99.90
22202;DHT22;11266;51.522;6.302;2023-07-09T04:45:03;22.80;99.90
22202;DHT22;11266;51.522;6.302;2023-07-09T04:45:48;22.80;99.90
22202;DHT22;11266;51.522;6.302;2023-07-09T04:46:34;22.80;99.90
22202;DHT22;11266;51.522;6.302;2023-07-09T04:47:19;22.90;99.90
22202;DHT22;11266;51.522;6.302;2023-07-09T04:48:05;22.90;99.90
22202;DHT22;11266;51.522;6.302;2023-07-09T04:48:51;23.00;99.90
22202;DHT22;11266;51.522;6.302;2023-07-09T04:49:36;23.00;99.90
22202;DHT22;11266;51.522;6.302;2023-07-09T04:50:22;23.00;99.90
22202;DHT22;11266;51.522;6.302;2023-07-09T04:51:08;23.10;99.90
22202;DHT22;11266;51.522;6.302;2023-07-09T04:51:54;23.10;99.90
22202;DHT22;11266;51.522;6.302;2023-07-09T04:52:44;23.10;99.90
22202;DHT22;11266;51.522;6.302;2023-07-09T04:53:29;23.20;99.90
22202;DHT22;11266;51.522;6.302;2023-07-09T04:54:15;23.20;99.90
22202;DHT22;11266;51.522;6.302;2023-07-09T04:55:01;23.30;99.90
22202;DHT22;11266;51.522;6.302;2023-07-09T04:55:49;23.30;99.90
22202;DHT22;11266;51.522;6.302;2023-07-09T04:56:35;23.40;99.90
22202;DHT22;11266;51.522;6.302;2023-07-09T04:57:22;23.40;99.90
22202;DHT22;11266;51.522;6.302;2023-07-09T04:58:08;23.50;99.90
22202;DHT22;11266;51.522;6.302;2023-07-09T04:58:54;23.50;99.90
22202;DHT22;11266;51.522;6.302;2023-07-09T04:59:40;23.60;99.90
22202;DHT22;11266;51.522;6.302;2023-07-09T05:00:27;23.60;99.90